createdAt,value
2023-01-29T00:02:17.474Z,96305.38
2023-01-29T00:04:45.253Z,96311.53
2023-01-29T00:07:14.380Z,96308.06
2023-01-29T00:09:42.145Z,96306.59
2023-01-29T00:12:09.903Z,96309.69
2023-01-29T00:14:37.664Z,96308.06
2023-01-29T00:17:05.506Z,96308.06
2023-01-29T00:19:33.385Z,96293.50
2023-01-29T00:22:01.076Z,96306.66
2023-01-29T00:24:30.199Z,96305.44
2023-01-29T00:26:57.904Z,96313.88
2023-01-29T00:29:25.648Z,96317.81
2023-01-29T00:31:53.460Z,96317.22
2023-01-29T00:34:22.986Z,96316.41
2023-01-29T00:36:50.645Z,96316.81
2023-01-29T00:39:31.483Z,96324.03
2023-01-29T00:42:25.676Z,96322.00
2023-01-29T00:44:59.438Z,96330.63
2023-01-29T00:47:33.412Z,96330.63
2023-01-29T00:50:02.028Z,96328.38
2023-01-29T00:52:29.990Z,96325.50
2023-01-29T00:54:59.240Z,96323.41
2023-01-29T00:57:30.042Z,96324.69
2023-01-29T00:59:58.163Z,96329.81
2023-01-29T01:02:44.243Z,96320.34
2023-01-29T01:05:17.946Z,96320.34
2023-01-29T01:07:46.656Z,96323.63
2023-01-29T01:10:21.601Z,96325.25
2023-01-29T01:12:53.532Z,96308.63
2023-01-29T01:15:21.470Z,96320.94
2023-01-29T01:17:52.479Z,96317.66
2023-01-29T01:20:20.356Z,96311.88
2023-01-29T01:22:48.059Z,96315.56
2023-01-29T01:25:16.155Z,96330.75
2023-01-29T01:27:43.819Z,96323.56
2023-01-29T01:30:15.491Z,96332.84
2023-01-29T01:32:44.119Z,96332.88
2023-01-29T01:35:13.700Z,96333.06
2023-01-29T01:37:41.964Z,96316.19
2023-01-29T01:40:18.034Z,96336.13
2023-01-29T01:42:48.280Z,96340.41
2023-01-29T01:45:22.984Z,96335.50
2023-01-29T01:47:55.525Z,96331.78
2023-01-29T01:50:28.039Z,96334.44
2023-01-29T01:53:01.031Z,96330.31
2023-01-29T01:55:31.288Z,96324.59
2023-01-29T01:58:05.873Z,96335.66
2023-01-29T02:00:35.358Z,96329.31
2023-01-29T02:03:22.326Z,96332.00
2023-01-29T02:06:08.595Z,96331.00
2023-01-29T02:09:03.398Z,96335.75
2023-01-29T02:11:31.503Z,96333.25
2023-01-29T02:13:59.476Z,96339.19
2023-01-29T02:16:28.544Z,96342.25
2023-01-29T02:18:56.434Z,96337.75
2023-01-29T02:21:50.618Z,96339.59
2023-01-29T02:24:55.990Z,96341.63
2023-01-29T02:27:34.696Z,96339.16
2023-01-29T02:30:08.529Z,96341.41
2023-01-29T02:32:54.571Z,96337.72
2023-01-29T02:35:32.545Z,96333.00
2023-01-29T02:38:12.882Z,96331.56
2023-01-29T02:40:46.472Z,96332.41
2023-01-29T02:43:27.419Z,96327.25
2023-01-29T02:46:03.743Z,96326.00
2023-01-29T02:48:41.810Z,96320.47
2023-01-29T02:51:14.928Z,96312.44
2023-01-29T02:53:50.672Z,96318.34
2023-01-29T02:56:22.704Z,96316.94
2023-01-29T02:58:58.440Z,96306.44
2023-01-29T03:01:31.873Z,96310.34
2023-01-29T03:04:05.104Z,96316.88
2023-01-29T03:06:36.691Z,96319.94
2023-01-29T03:09:10.510Z,96316.84
2023-01-29T03:11:42.462Z,96304.75
2023-01-29T03:14:14.217Z,96312.94
2023-01-29T03:16:48.669Z,96315.59
2023-01-29T03:19:21.505Z,96321.31
2023-01-29T03:21:59.255Z,96319.47
2023-01-29T03:24:52.807Z,96310.66
2023-01-29T03:27:42.020Z,96317.84
2023-01-29T03:30:30.750Z,96313.53
2023-01-29T03:33:06.408Z,96320.69
2023-01-29T03:35:39.556Z,96328.31
2023-01-29T03:38:10.927Z,96324.22
2023-01-29T03:40:46.907Z,96329.16
2023-01-29T03:43:27.865Z,96329.59
2023-01-29T03:46:02.661Z,96324.69
2023-01-29T03:48:36.612Z,96324.50
2023-01-29T03:51:15.724Z,96329.81
2023-01-29T03:53:48.930Z,96318.78
2023-01-29T03:56:28.468Z,96314.84
2023-01-29T03:59:02.247Z,96312.19
2023-01-29T04:01:34.408Z,96305.59
2023-01-29T04:04:11.202Z,96302.28
2023-01-29T04:06:43.104Z,96293.66
2023-01-29T04:09:15.657Z,96286.69
2023-01-29T04:11:49.768Z,96290.59
2023-01-29T04:14:18.525Z,96279.50
2023-01-29T04:16:49.894Z,96282.34
2023-01-29T04:19:19.121Z,96287.44
2023-01-29T04:21:50.235Z,96280.66
2023-01-29T04:24:18.621Z,96281.47
2023-01-29T04:26:58.543Z,96289.72
2023-01-29T04:29:52.445Z,96286.69
2023-01-29T04:32:28.047Z,96291.81
2023-01-29T04:35:02.446Z,96290.59
2023-01-29T04:37:41.034Z,96285.25
2023-01-29T04:40:19.602Z,96286.28
2023-01-29T04:42:53.100Z,96295.75
2023-01-29T04:45:29.558Z,96293.47
2023-01-29T04:48:03.170Z,96297.56
2023-01-29T04:50:39.241Z,96298.97
2023-01-29T04:53:14.094Z,96299.19
2023-01-29T04:55:45.854Z,96304.13
2023-01-29T04:58:19.380Z,96287.94
2023-01-29T05:00:51.137Z,96297.59
2023-01-29T05:03:19.325Z,96296.19
2023-01-29T05:05:51.185Z,96298.16
2023-01-29T05:08:22.496Z,96294.91
2023-01-29T05:10:52.625Z,96288.13
2023-01-29T05:13:23.109Z,96297.34
2023-01-29T05:15:56.479Z,96294.28
2023-01-29T05:18:24.525Z,96300.00
2023-01-29T05:20:56.608Z,96295.31
2023-01-29T05:23:24.806Z,96297.16
2023-01-29T05:25:52.958Z,96298.59
2023-01-29T05:28:19.842Z,96308.63
2023-01-29T05:30:49.600Z,96313.56
2023-01-29T05:33:19.144Z,96317.44
2023-01-29T05:35:47.113Z,96321.13
2023-01-29T05:38:16.862Z,96327.69
2023-01-29T05:40:45.241Z,96325.25
2023-01-29T05:43:17.671Z,96334.91
2023-01-29T05:45:53.360Z,96331.19
2023-01-29T05:48:21.197Z,96343.31
2023-01-29T05:50:48.933Z,96341.50
2023-01-29T05:53:18.142Z,96344.59
2023-01-29T05:55:46.495Z,96344.81
2023-01-29T05:58:14.863Z,96344.31
2023-01-29T06:00:42.800Z,96334.34
2023-01-29T06:03:10.520Z,96328.56
2023-01-29T06:05:39.051Z,96324.88
2023-01-29T06:08:07.830Z,96335.97
2023-01-29T06:10:37.127Z,96333.31
2023-01-29T06:13:08.184Z,96334.34
2023-01-29T06:15:35.881Z,96324.06
2023-01-29T06:18:03.528Z,96330.59
2023-01-29T06:20:31.191Z,96318.09
2023-01-29T06:22:59.480Z,96325.06
2023-01-29T06:25:27.219Z,96321.38
2023-01-29T06:27:59.105Z,96330.22
2023-01-29T06:30:28.410Z,96327.09
2023-01-29T06:32:58.658Z,96327.31
2023-01-29T06:35:27.004Z,96340.63
2023-01-29T06:37:55.039Z,96339.22
2023-01-29T06:40:22.708Z,96321.97
2023-01-29T06:42:50.363Z,96328.31
2023-01-29T06:45:19.511Z,96330.34
2023-01-29T06:47:47.154Z,96335.50
2023-01-29T06:50:15.105Z,96336.75
2023-01-29T06:52:42.988Z,96342.91
2023-01-29T06:55:10.960Z,96347.41
2023-01-29T06:57:38.596Z,96341.63
2023-01-29T07:00:07.558Z,96340.44
2023-01-29T07:02:36.582Z,96339.97
2023-01-29T07:05:04.448Z,96333.63
2023-01-29T07:07:32.141Z,96328.50
2023-01-29T07:09:59.808Z,96339.78
2023-01-29T07:12:27.545Z,96331.59
2023-01-29T07:14:55.200Z,96335.50
2023-01-29T07:17:22.877Z,96337.16
2023-01-29T07:19:51.922Z,96329.97
2023-01-29T07:22:19.555Z,96332.00
2023-01-29T07:24:48.376Z,96323.00
2023-01-29T07:27:18.903Z,96315.44
2023-01-29T07:29:46.586Z,96312.56
2023-01-29T07:32:14.230Z,96309.94
2023-01-29T07:34:41.927Z,96317.75
2023-01-29T07:37:11.110Z,96317.31
2023-01-29T07:39:38.743Z,96309.13
2023-01-29T07:42:06.505Z,96304.41
2023-01-29T07:44:34.162Z,96314.31
2023-01-29T07:47:01.850Z,96301.41
2023-01-29T07:49:29.513Z,96306.31
2023-01-29T07:51:57.250Z,96304.69
2023-01-29T07:54:26.285Z,96292.00
2023-01-29T07:56:53.978Z,96297.31
2023-01-29T07:59:21.667Z,96295.72
2023-01-29T08:01:49.330Z,96305.16
2023-01-29T08:04:17.003Z,96295.91
2023-01-29T08:06:44.674Z,96291.81
2023-01-29T08:09:12.354Z,96286.28
2023-01-29T08:11:41.419Z,96285.91
2023-01-29T08:14:09.451Z,96285.09
2023-01-29T08:16:37.302Z,96284.69
2023-01-29T08:19:05.128Z,96287.78
2023-01-29T08:21:32.783Z,96292.91
2023-01-29T08:26:29.252Z,96278.50
2023-01-29T08:28:58.283Z,96292.91
2023-01-29T08:31:25.983Z,96290.81
2023-01-29T08:33:55.137Z,96289.41
2023-01-29T08:36:23.073Z,96297.63
2023-01-29T08:38:50.831Z,96295.16
2023-01-29T08:41:18.497Z,96302.56
2023-01-29T08:43:46.583Z,96302.75
2023-01-29T08:46:15.820Z,96308.53
2023-01-29T08:48:43.588Z,96316.97
2023-01-29T08:51:11.328Z,96324.19
2023-01-29T08:53:38.982Z,96328.50
2023-01-29T08:56:07.187Z,96331.16
2023-01-29T08:58:35.017Z,96321.66
2023-01-29T09:01:09.944Z,96327.25
2023-01-29T09:03:40.944Z,96329.97
2023-01-29T09:06:10.407Z,96334.47
2023-01-29T09:08:38.818Z,96338.00
2023-01-29T09:11:06.883Z,96338.78
2023-01-29T09:13:34.974Z,96333.88
2023-01-29T09:16:03.500Z,96352.16
2023-01-29T09:18:32.158Z,96352.53
2023-01-29T09:21:02.547Z,96351.31
2023-01-29T09:23:31.004Z,96350.50
2023-01-29T09:25:58.703Z,96356.47
2023-01-29T09:28:26.608Z,96351.34
2023-01-29T09:30:54.569Z,96349.69
2023-01-29T09:33:22.410Z,96355.66
2023-01-29T09:35:50.097Z,96358.53
2023-01-29T09:38:19.173Z,96358.53
2023-01-29T09:40:55.958Z,96361.41
2023-01-29T09:43:32.070Z,96361.84
2023-01-29T09:46:03.066Z,96359.97
2023-01-29T09:48:35.157Z,96378.66
2023-01-29T09:51:13.418Z,96373.13
2023-01-29T09:53:50.410Z,96374.56
2023-01-29T09:56:21.456Z,96377.84
2023-01-29T09:58:49.383Z,96371.31
2023-01-29T10:01:22.936Z,96373.97
2023-01-29T10:04:04.315Z,96364.72
2023-01-29T10:06:44.796Z,96356.91
2023-01-29T10:09:51.051Z,96356.28
2023-01-29T10:12:35.530Z,96352.16
2023-01-29T10:15:17.424Z,96342.69
2023-01-29T10:17:59.365Z,96357.47
2023-01-29T10:20:43.662Z,96345.94
2023-01-29T10:23:22.700Z,96344.44
2023-01-29T10:25:53.266Z,96336.81
2023-01-29T10:28:26.199Z,96337.56
2023-01-29T10:31:00.429Z,96340.06
2023-01-29T10:33:48.791Z,96337.94
2023-01-29T10:36:24.337Z,96335.13
2023-01-29T10:38:52.513Z,96336.41
2023-01-29T10:41:45.627Z,96331.41
2023-01-29T10:44:24.307Z,96331.25
2023-01-29T10:47:07.494Z,96334.34
2023-01-29T10:49:54.742Z,96338.03
2023-01-29T10:52:34.385Z,96331.81
2023-01-29T10:55:17.255Z,96331.19
2023-01-29T10:57:58.346Z,96326.94
2023-01-29T11:00:30.402Z,96333.53
2023-01-29T11:02:58.229Z,96327.28
2023-01-29T11:05:30.781Z,96327.22
2023-01-29T11:08:05.729Z,96317.13
2023-01-29T11:10:38.560Z,96318.81
2023-01-29T11:13:12.574Z,96312.94
2023-01-29T11:15:40.355Z,96313.47
2023-01-29T11:18:13.567Z,96313.16
2023-01-29T11:20:43.396Z,96313.13
2023-01-29T11:23:27.434Z,96311.50
2023-01-29T11:25:56.651Z,96302.19
2023-01-29T11:28:40.095Z,96314.53
2023-01-29T11:31:20.046Z,96302.59
2023-01-29T11:33:48.461Z,96301.81
2023-01-29T11:36:38.096Z,96294.59
2023-01-29T11:39:21.382Z,96297.56
2023-01-29T11:41:53.719Z,96295.91
2023-01-29T11:44:29.003Z,96302.44
2023-01-29T11:46:57.941Z,96301.41
2023-01-29T11:49:33.903Z,96291.72
2023-01-29T11:52:04.613Z,96285.09
2023-01-29T11:54:38.044Z,96281.16
2023-01-29T11:57:06.423Z,96272.38
2023-01-29T11:59:44.160Z,96243.78
2023-01-29T12:02:28.019Z,96232.09
2023-01-29T12:04:58.345Z,96222.22
2023-01-29T12:07:26.492Z,96213.38
2023-01-29T12:09:56.862Z,96209.59
2023-01-29T12:12:34.291Z,96203.22
2023-01-29T12:15:17.396Z,96201.13
2023-01-29T12:17:58.565Z,96207.72
2023-01-29T12:20:32.059Z,96202.25
2023-01-29T12:23:08.832Z,96209.56
2023-01-29T12:25:42.759Z,96208.53
2023-01-29T12:28:23.930Z,96203.81
2023-01-29T12:31:05.456Z,96209.16
2023-01-29T12:33:42.758Z,96214.13
2023-01-29T12:36:18.661Z,96224.75
2023-01-29T12:38:46.890Z,96237.47
2023-01-29T12:41:29.622Z,96234.03
2023-01-29T12:44:01.039Z,96221.69
2023-01-29T12:46:32.982Z,96212.00
2023-01-29T12:49:05.813Z,96213.25
2023-01-29T12:51:39.724Z,96203.84
2023-01-29T12:54:10.417Z,96202.59
2023-01-29T12:56:43.395Z,96204.31
2023-01-29T12:59:18.713Z,96202.88
2023-01-29T13:01:53.484Z,96189.09
2023-01-29T13:04:31.850Z,96196.53
2023-01-29T13:07:12.163Z,96186.00
2023-01-29T13:09:42.820Z,96175.56
2023-01-29T13:12:15.220Z,96168.78
2023-01-29T13:14:47.467Z,96171.69
2023-01-29T13:17:22.700Z,96166.56
2023-01-29T13:19:53.751Z,96164.09
2023-01-29T13:22:25.793Z,96160.16
2023-01-29T13:25:04.275Z,96152.38
2023-01-29T13:27:35.318Z,96153.78
2023-01-29T13:30:03.814Z,96146.00
2023-01-29T13:32:36.758Z,96149.88
2023-01-29T13:35:13.180Z,96151.72
2023-01-29T13:37:47.788Z,96139.94
2023-01-29T13:40:24.171Z,96144.28
2023-01-29T13:42:54.305Z,96141.34
2023-01-29T13:45:24.704Z,96135.03
2023-01-29T13:47:55.020Z,96136.88
2023-01-29T13:50:31.004Z,96139.13
2023-01-29T13:53:01.750Z,96129.88
2023-01-29T13:55:32.762Z,96132.13
2023-01-29T13:58:01.375Z,96135.06
2023-01-29T14:01:00.414Z,96135.94
2023-01-29T14:04:05.577Z,96139.88
2023-01-29T14:06:41.228Z,96136.59
2023-01-29T14:09:50.540Z,96132.09
2023-01-29T14:12:40.865Z,96137.22
2023-01-29T14:15:33.443Z,96109.22
2023-01-29T14:18:20.639Z,96112.34
2023-01-29T14:21:01.569Z,96115.03
2023-01-29T14:23:40.511Z,96123.63
2023-01-29T14:26:25.336Z,96120.31
2023-01-29T14:28:57.504Z,96119.97
2023-01-29T14:31:37.247Z,96122.44
2023-01-29T14:34:08.644Z,96119.53
2023-01-29T14:36:46.237Z,96122.44
2023-01-29T14:39:30.923Z,96129.84
2023-01-29T14:41:59.790Z,96138.06
2023-01-29T14:45:06.983Z,96144.66
2023-01-29T14:47:59.479Z,96146.28
2023-01-29T14:50:51.950Z,96157.59
2023-01-29T14:53:32.671Z,96155.09
2023-01-29T14:56:03.859Z,96150.38
2023-01-29T14:58:39.473Z,96144.44
2023-01-29T15:01:17.109Z,96145.06
2023-01-29T15:03:48.853Z,96136.81
2023-01-29T15:06:21.038Z,96138.84
2023-01-29T15:08:56.807Z,96132.50
2023-01-29T15:11:37.099Z,96128.19
2023-01-29T15:14:18.864Z,96135.75
2023-01-29T15:16:52.955Z,96119.13
2023-01-29T15:19:27.369Z,96119.75
2023-01-29T15:22:09.294Z,96124.28
2023-01-29T15:24:39.588Z,96127.59
2023-01-29T15:27:11.229Z,96137.03
2023-01-29T15:29:40.136Z,96147.72
2023-01-29T15:32:08.590Z,96134.78
2023-01-29T15:34:36.646Z,96137.47
2023-01-29T15:37:04.344Z,96136.66
2023-01-29T15:39:32.068Z,96130.88
2023-01-29T15:42:15.623Z,96141.78
2023-01-29T15:44:47.289Z,96143.41
2023-01-29T15:47:16.166Z,96142.81
2023-01-29T15:49:46.603Z,96146.91
2023-01-29T15:52:20.335Z,96150.78
2023-01-29T15:54:48.514Z,96150.59
2023-01-29T15:57:23.509Z,96145.06
2023-01-29T15:59:53.271Z,96150.16
2023-01-29T16:02:33.817Z,96154.88
2023-01-29T16:05:01.752Z,96164.94
2023-01-29T16:07:30.988Z,96156.75
2023-01-29T16:09:59.273Z,96160.84
2023-01-29T16:12:29.020Z,96158.59
2023-01-29T16:14:57.846Z,96154.50
2023-01-29T16:17:26.975Z,96151.19
2023-01-29T16:19:59.212Z,96155.72
2023-01-29T16:22:30.039Z,96170.28
2023-01-29T16:24:58.987Z,96166.56
2023-01-29T16:27:28.102Z,96170.06
2023-01-29T16:29:55.893Z,96174.38
2023-01-29T16:32:23.671Z,96174.38
2023-01-29T16:34:56.785Z,96176.84
2023-01-29T16:37:28.041Z,96176.00
2023-01-29T16:39:55.823Z,96183.97
2023-01-29T16:42:29.791Z,96183.38
2023-01-29T16:45:00.127Z,96190.75
2023-01-29T16:47:33.953Z,96191.59
2023-01-29T16:50:04.745Z,96188.28
2023-01-29T16:52:34.076Z,96195.47
2023-01-29T16:55:16.330Z,96198.97
2023-01-29T16:57:50.998Z,96197.13
2023-01-29T17:00:23.232Z,96208.41
2023-01-29T17:02:54.079Z,96205.31
2023-01-29T17:05:26.949Z,96208.41
2023-01-29T17:07:59.501Z,96202.69
2023-01-29T17:10:29.932Z,96208.00
2023-01-29T17:13:02.676Z,96213.38
2023-01-29T17:15:37.147Z,96210.91
2023-01-29T17:18:16.762Z,96211.50
2023-01-29T17:20:44.423Z,96216.84
2023-01-29T17:23:12.161Z,96219.47
2023-01-29T17:25:40.131Z,96216.59
2023-01-29T17:28:12.310Z,96213.13
2023-01-29T17:30:40.214Z,96216.41
2023-01-29T17:33:13.565Z,96222.97
2023-01-29T17:35:42.191Z,96217.63
2023-01-29T17:38:24.970Z,96210.66
2023-01-29T17:40:57.568Z,96212.72
2023-01-29T17:43:26.824Z,96208.59
2023-01-29T17:45:54.559Z,96210.66
2023-01-29T17:48:24.224Z,96208.81
2023-01-29T17:50:54.090Z,96214.53
2023-01-29T17:53:24.832Z,96210.41
2023-01-29T17:55:54.171Z,96207.94
2023-01-29T17:58:23.172Z,96210.41
2023-01-29T18:00:53.327Z,96211.03
2023-01-29T18:03:21.362Z,96212.66
2023-01-29T18:05:50.324Z,96208.81
2023-01-29T18:08:19.571Z,96215.78
2023-01-29T18:10:48.010Z,96207.97
2023-01-29T18:13:15.794Z,96197.94
2023-01-29T18:15:43.512Z,96205.09
2023-01-29T18:18:14.906Z,96201.41
2023-01-29T18:20:42.713Z,96190.09
2023-01-29T18:23:10.379Z,96205.28
2023-01-29T18:25:38.673Z,96199.53
2023-01-29T18:28:07.605Z,96198.50
2023-01-29T18:30:35.347Z,96197.69
2023-01-29T18:33:03.024Z,96200.97
2023-01-29T18:35:32.085Z,96193.38
2023-01-29T18:37:59.768Z,96192.50
2023-01-29T18:40:27.653Z,96194.34
2023-01-29T18:42:55.329Z,96196.00
2023-01-29T18:45:22.981Z,96191.88
2023-01-29T18:47:50.607Z,96193.91
2023-01-29T18:50:18.441Z,96192.03
2023-01-29T18:52:47.713Z,96196.09
2023-01-29T18:55:15.657Z,96195.03
2023-01-29T18:58:29.496Z,96195.41
2023-01-29T19:00:31.257Z,96195.91
2023-01-29T19:02:59.024Z,96198.72
2023-01-29T19:05:26.787Z,96203.84
2023-01-29T19:07:55.910Z,96200.56
2023-01-29T19:10:23.594Z,96200.72
2023-01-29T19:12:51.294Z,96201.09
2023-01-29T19:15:21.471Z,96202.66
2023-01-29T19:17:49.236Z,96204.00
2023-01-29T19:20:17.074Z,96207.00
2023-01-29T19:22:44.751Z,96205.72
2023-01-29T19:25:14.844Z,96202.25
2023-01-29T19:27:42.660Z,96202.44
2023-01-29T19:30:12.814Z,96198.75
2023-01-29T19:32:40.574Z,96201.63
2023-01-29T19:35:08.604Z,96198.88
2023-01-29T19:37:36.321Z,96193.34
2023-01-29T19:40:04.126Z,96199.41
2023-01-29T19:42:33.190Z,96193.41
2023-01-29T19:45:00.843Z,96200.50
2023-01-29T19:47:28.540Z,96204.91
2023-01-29T19:49:56.208Z,96200.19
2023-01-29T19:52:50.396Z,96197.91
2023-01-29T19:55:19.808Z,96200.47
2023-01-29T19:57:49.217Z,96200.03
2023-01-29T20:00:18.317Z,96195.94
2023-01-29T20:02:46.243Z,96197.50
2023-01-29T20:05:17.238Z,96188.88
2023-01-29T20:07:45.246Z,96187.06
2023-01-29T20:10:17.336Z,96182.66
2023-01-29T20:12:46.049Z,96182.84
2023-01-29T20:15:15.734Z,96185.22
2023-01-29T20:17:43.650Z,96182.19
2023-01-29T20:20:12.190Z,96183.00
2023-01-29T20:22:40.017Z,96182.38
2023-01-29T20:25:08.783Z,96187.69
2023-01-29T20:27:36.747Z,96178.44
2023-01-29T20:30:05.038Z,96180.47
2023-01-29T20:32:34.147Z,96179.41
2023-01-29T20:35:01.924Z,96183.06
2023-01-29T20:37:29.665Z,96179.31
2023-01-29T20:39:57.512Z,96181.41
2023-01-29T20:42:25.321Z,96186.72
2023-01-29T20:44:53.480Z,96183.16
2023-01-29T20:47:21.291Z,96184.94
2023-01-29T20:49:50.359Z,96183.84
2023-01-29T20:52:18.248Z,96183.06
2023-01-29T20:54:46.484Z,96172.66
2023-01-29T20:57:14.737Z,96167.28
2023-01-29T20:59:42.631Z,96176.25
2023-01-29T21:02:11.970Z,96168.81
2023-01-29T21:04:39.923Z,96160.41
2023-01-29T21:07:09.262Z,96158.69
2023-01-29T21:09:37.156Z,96152.09
2023-01-29T21:12:05.573Z,96155.06
2023-01-29T21:14:33.574Z,96158.06
2023-01-29T21:17:02.046Z,96156.97
2023-01-29T21:19:30.895Z,96160.00
2023-01-29T21:21:58.966Z,96155.91
2023-01-29T21:24:28.211Z,96150.59
2023-01-29T21:26:56.033Z,96154.06
2023-01-29T21:29:23.921Z,96161.09
2023-01-29T21:31:51.810Z,96153.78
2023-01-29T21:34:19.668Z,96154.44
2023-01-29T21:36:47.631Z,96160.28
2023-01-29T21:39:20.529Z,96168.78
2023-01-29T21:42:08.580Z,96171.72
2023-01-29T21:44:37.157Z,96166.31
2023-01-29T21:47:12.343Z,96170.72
2023-01-29T21:49:41.274Z,96162.94
2023-01-29T21:52:11.306Z,96162.38
2023-01-29T21:54:40.042Z,96157.88
2023-01-29T21:57:14.850Z,96158.47
2023-01-29T21:59:42.522Z,96159.81
2023-01-29T22:02:14.496Z,96158.91
2023-01-29T22:04:42.924Z,96151.75
2023-01-29T22:07:11.176Z,96153.50
2023-01-29T22:09:39.388Z,96153.63
2023-01-29T22:12:10.139Z,96146.75
2023-01-29T22:14:37.886Z,96152.03
2023-01-29T22:17:06.413Z,96148.69
2023-01-29T22:19:34.180Z,96141.34
2023-01-29T22:22:02.415Z,96141.72
2023-01-29T22:24:30.017Z,96142.78
2023-01-29T22:26:57.763Z,96137.59
2023-01-29T22:29:26.825Z,96133.22
2023-01-29T22:31:56.489Z,96135.50
2023-01-29T22:34:24.222Z,96129.53
2023-01-29T22:36:51.897Z,96126.13
2023-01-29T22:39:19.582Z,96115.88
2023-01-29T22:41:47.591Z,96107.38
2023-01-29T22:44:15.279Z,96108.66
2023-01-29T22:46:44.402Z,96104.53
2023-01-29T22:49:12.511Z,96097.31
2023-01-29T22:51:40.249Z,96096.56
2023-01-29T22:54:08.122Z,96090.25
2023-01-29T23:01:37.354Z,96093.56
2023-01-29T23:04:05.055Z,96079.53
2023-01-29T23:06:32.734Z,96071.75
2023-01-29T23:09:00.372Z,96069.84
2023-01-29T23:11:28.638Z,96061.88
2023-01-29T23:13:56.617Z,96068.75
2023-01-29T23:16:27.706Z,96065.47
2023-01-29T23:18:57.743Z,96061.91
2023-01-29T23:21:27.202Z,96061.28
2023-01-29T23:23:55.360Z,96062.94
2023-01-29T23:26:40.713Z,96053.88
2023-01-29T23:29:08.435Z,96053.41
2023-01-29T23:31:36.315Z,96044.44
2023-01-29T23:34:05.391Z,96047.28
2023-01-29T23:36:33.093Z,96045.41
2023-01-29T23:39:00.837Z,96039.81
2023-01-29T23:41:28.545Z,96037.34
2023-01-29T23:43:56.178Z,96036.88
2023-01-29T23:46:24.201Z,96037.28
2023-01-29T23:48:51.843Z,96041.97
2023-01-29T23:51:20.894Z,96039.22
2023-01-29T23:53:48.568Z,96043.75
2023-01-29T23:56:16.268Z,96040.13
2023-01-29T23:58:44.756Z,96028.50
